Time;durP1;ratioP1;P1;durP2;ratioP2;P2;SDS_P1;SDS_P2;PMS_P1;PMS_P2;Temp;Humidity;BMP_temperature;BMP_pressure;BME280_temperature;BME280_humidity;BME280_pressure;Samples;Min_cycle;Max_cycle;Signal;HPM_P1;HPM_P2
2022/04/21 00:01:22;;;;;;;;;;;;;;;9.19;100.00;100486.31;5092378;28;20370;-75
2022/04/21 00:03:47;;;;;;;;;;;;;;;9.17;100.00;100485.38;5091429;28;19924;-73
2022/04/21 00:06:13;;;;;;;;;;;;;;;9.17;100.00;100482.75;5110846;28;19924;-77
2022/04/21 00:08:38;;;;;;;;;;;;;;;9.11;100.00;100482.50;5092207;28;19930;-76
2022/04/21 00:11:03;;;;;;;;;;;;;;;9.08;100.00;100475.41;5092219;28;20386;-75
2022/04/21 00:13:30;;;;;;;;;;;;;;;9.08;100.00;100470.16;5104157;28;19920;-77
2022/04/21 00:15:55;;;;;;;;;;;;;;;9.02;100.00;100471.69;5084041;28;20018;-74
2022/04/21 00:18:21;;;;;;;;;;;;;;;8.97;100.00;100464.50;5090628;28;20015;-75
2022/04/21 00:20:46;;;;;;;;;;;;;;;8.97;100.00;100461.88;5093537;28;20569;-73
2022/04/21 00:23:26;;;;;;;;;;;;;;;8.95;100.00;100457.44;5089136;28;19920;-75
2022/04/21 00:25:53;;;;;;;;;;;;;;;8.90;100.00;100456.34;5090585;28;20489;-78
2022/04/21 00:28:18;;;;;;;;;;;;;;;8.87;100.00;100459.78;5110151;28;19920;-76
2022/04/21 00:30:43;;;;;;;;;;;;;;;8.84;100.00;100457.03;5115276;28;19919;-73
2022/04/21 00:33:09;;;;;;;;;;;;;;;8.78;100.00;100452.47;5108918;28;19942;-75
2022/04/21 00:35:34;;;;;;;;;;;;;;;8.81;100.00;100459.56;5112996;28;19920;-76
2022/04/21 00:37:59;;;;;;;;;;;;;;;8.91;100.00;100458.16;5102167;28;19920;-78
2022/04/21 00:40:26;;;;;;;;;;;;;;;8.91;100.00;100463.41;5110559;28;20386;-77
2022/04/21 00:42:52;;;;;;;;;;;;;;;8.90;100.00;100453.72;5113738;28;20014;-78
2022/04/21 00:45:17;;;;;;;;;;;;;;;8.92;100.00;100466.09;5098901;28;20030;-77
2022/04/21 00:47:44;;;;;;;;;;;;;;;8.96;100.00;100475.88;5110956;28;19941;-78
2022/04/21 00:50:10;;;;;;;;;;;;;;;8.98;100.00;100495.19;5114446;27;19920;-78
2022/04/21 00:52:36;;;;;;;;;;;;;;;8.96;100.00;100501.22;5096887;28;20014;-78
2022/04/21 00:55:01;;;;;;;;;;;;;;;8.96;100.00;100509.09;5097026;28;20015;-75
2022/04/21 00:57:27;;;;;;;;;;;;;;;8.87;100.00;100509.69;5077621;28;20018;-73
2022/04/21 00:59:53;;;;;;;;;;;;;;;8.82;100.00;100503.34;5083466;28;19920;-73
2022/04/21 01:05:02;;;;;;;;;;;;;;;8.65;100.00;100491.31;5113849;27;19980;-73
2022/04/21 01:07:27;;;;;;;;;;;;;;;8.59;100.00;100491.97;5083267;28;19924;-71
2022/04/21 01:09:56;;;;;;;;;;;;;;;8.57;100.00;100477.91;5085018;28;20398;-73
2022/04/21 01:12:21;;;;;;;;;;;;;;;8.50;100.00;100478.50;5109301;27;19973;-73
2022/04/21 01:14:46;;;;;;;;;;;;;;;8.49;100.00;100477.59;5108434;27;19973;-73
2022/04/21 01:17:13;;;;;;;;;;;;;;;8.44;100.00;100471.28;5078353;28;19924;-73
2022/04/21 01:19:38;;;;;;;;;;;;;;;8.42;100.00;100465.94;5103473;27;19923;-74
2022/04/21 01:22:04;;;;;;;;;;;;;;;8.35;100.00;100468.28;5108180;27;19996;-73
2022/04/21 01:24:29;;;;;;;;;;;;;;;8.30;100.00;100462.84;5094812;28;19924;-74
2022/04/21 01:26:55;;;;;;;;;;;;;;;8.39;100.00;100457.03;5078069;28;19920;-75
2022/04/21 01:29:20;;;;;;;;;;;;;;;8.40;100.00;100464.09;5085174;28;20283;-74
2022/04/21 01:31:46;;;;;;;;;;;;;;;8.39;100.00;100462.28;5095356;28;20014;-74
2022/04/21 01:34:11;;;;;;;;;;;;;;;8.35;100.00;100456.03;5112881;27;19923;-73
2022/04/21 01:41:08;;;;;;;;;;;;;;;8.30;100.00;100457.59;5085897;28;19974;-75
2022/04/21 01:42:06;;;;;;;;;;;;;;;8.27;100.00;100447.00;5108044;28;20306;-76
2022/04/21 01:44:32;;;;;;;;;;;;;;;8.24;100.00;100449.50;5075963;28;19923;-75
2022/04/21 01:46:57;;;;;;;;;;;;;;;8.29;100.00;100441.81;5090630;28;20023;-74
2022/04/21 01:49:23;;;;;;;;;;;;;;;8.20;100.00;100458.06;5094925;28;20299;-74
2022/04/21 01:51:48;;;;;;;;;;;;;;;8.24;100.00;100444.25;5075305;28;19978;-75
2022/04/21 01:54:13;;;;;;;;;;;;;;;8.21;100.00;100442.41;5094046;28;19916;-74
2022/04/21 01:56:38;;;;;;;;;;;;;;;8.27;100.00;100449.63;5094086;28;19970;-74
2022/04/21 01:59:04;;;;;;;;;;;;;;;8.20;100.00;100450.19;5093267;27;19930;-73
2022/04/21 02:01:30;;;;;;;;;;;;;;;8.14;100.00;100456.13;5094881;28;20026;-73
2022/04/21 02:03:56;;;;;;;;;;;;;;;8.11;100.00;100453.38;5093662;28;20356;-74
2022/04/21 02:06:21;;;;;;;;;;;;;;;8.09;100.00;100447.16;5088285;28;19924;-78
2022/04/21 02:08:47;;;;;;;;;;;;;;;8.04;100.00;100453.97;5078102;28;19927;-73
2022/04/21 02:11:12;;;;;;;;;;;;;;;8.00;100.00;100446.78;5112105;28;20436;-78
2022/04/21 02:13:37;;;;;;;;;;;;;;;7.96;100.00;100440.53;5095015;28;19943;-76
2022/04/21 02:16:03;;;;;;;;;;;;;;;7.93;100.00;100435.16;5113376;28;20007;-77
2022/04/21 02:18:28;;;;;;;;;;;;;;;7.95;100.00;100433.50;5113379;28;20035;-78
2022/04/21 02:20:54;;;;;;;;;;;;;;;7.91;100.00;100431.59;5089443;28;19912;-79
2022/04/21 02:23:19;;;;;;;;;;;;;;;7.91;100.00;100432.50;5082468;27;19926;-77
2022/04/21 02:25:44;;;;;;;;;;;;;;;7.95;100.00;100435.22;5110023;28;19951;-78
2022/04/21 02:28:09;;;;;;;;;;;;;;;7.94;100.00;100425.56;5095193;28;19973;-78
2022/04/21 02:30:35;;;;;;;;;;;;;;;8.01;100.00;100430.22;5116495;27;19966;-76
2022/04/21 02:33:00;;;;;;;;;;;;;;;8.11;100.00;100431.47;5095729;28;19924;-77
2022/04/21 02:35:25;;;;;;;;;;;;;;;8.11;100.00;100434.09;5091386;28;19916;-79
2022/04/21 02:37:51;;;;;;;;;;;;;;;8.14;100.00;100437.75;5091949;28;19927;-76
2022/04/21 02:40:16;;;;;;;;;;;;;;;8.12;100.00;100441.16;5082741;28;20371;-77
2022/04/21 02:42:42;;;;;;;;;;;;;;;8.08;100.00;100441.03;5077901;28;19920;-73
2022/04/21 02:45:07;;;;;;;;;;;;;;;8.04;100.00;100444.34;5093987;28;19942;-75
2022/04/21 02:47:35;;;;;;;;;;;;;;;8.02;100.00;100440.78;5086587;28;19920;-75
2022/04/21 02:50:00;;;;;;;;;;;;;;;7.96;100.00;100434.41;5090923;28;20363;-73
2022/04/21 02:52:25;;;;;;;;;;;;;;;7.89;100.00;100428.91;5114010;27;19922;-77
2022/04/21 02:57:43;;;;;;;;;;;;;;;7.71;100.00;100415.06;5083049;28;19931;-76
2022/04/21 03:00:09;;;;;;;;;;;;;;;7.68;100.00;100410.59;5076924;28;19924;-78
2022/04/21 03:02:34;;;;;;;;;;;;;;;7.61;100.00;100405.91;5109290;28;19927;-78
2022/04/21 03:04:59;;;;;;;;;;;;;;;7.52;100.00;100401.22;5101342;27;19919;-79
2022/04/21 03:07:25;;;;;;;;;;;;;;;7.51;100.00;100399.41;5096221;28;19916;-77
2022/04/21 03:09:53;;;;;;;;;;;;;;;7.50;100.00;100387.16;5090780;28;19962;-76
2022/04/21 03:12:18;;;;;;;;;;;;;;;7.47;100.00;100388.75;5106451;27;19919;-79
2022/04/21 03:14:43;;;;;;;;;;;;;;;7.44;100.00;100386.00;5090584;28;20179;-75
2022/04/21 03:17:09;;;;;;;;;;;;;;;7.41;100.00;100370.16;5087705;28;19967;-74
2022/04/21 03:19:35;;;;;;;;;;;;;;;7.35;100.00;100371.72;5092068;27;20276;-73
2022/04/21 03:24:44;;;;;;;;;;;;;;;7.31;100.00;100361.03;5093981;28;20401;-73
2022/04/21 03:27:10;;;;;;;;;;;;;;;7.35;100.00;100365.59;5059656;28;20328;-73
2022/04/21 03:29:37;;;;;;;;;;;;;;;7.33;100.00;100359.38;5088698;28;19920;-74
2022/04/21 03:32:09;;;;;;;;;;;;;;;7.31;100.00;100363.66;5084986;28;19931;-73
2022/04/21 03:34:35;;;;;;;;;;;;;;;7.33;100.00;100362.91;5093174;28;19920;-74
2022/04/21 03:37:01;;;;;;;;;;;;;;;7.38;100.00;100363.09;5092578;28;20059;-73
2022/04/21 03:39:26;;;;;;;;;;;;;;;7.35;100.00;100373.44;5093104;28;19995;-74
2022/04/21 03:41:53;;;;;;;;;;;;;;;7.37;100.00;100379.63;5091789;28;19926;-73
2022/04/21 03:44:21;;;;;;;;;;;;;;;7.38;100.00;100381.44;5090245;28;19924;-74
2022/04/21 03:46:46;;;;;;;;;;;;;;;7.38;100.00;100391.91;5085209;28;21548;-75
2022/04/21 03:49:12;;;;;;;;;;;;;;;7.43;100.00;100392.09;5080514;28;19927;-75
2022/04/21 03:51:37;;;;;;;;;;;;;;;7.55;100.00;100396.09;5091971;28;19920;-73
2022/04/21 03:54:02;;;;;;;;;;;;;;;7.54;100.00;100393.41;5105682;28;20312;-73
2022/04/21 03:56:28;;;;;;;;;;;;;;;7.52;100.00;100400.34;5105552;28;20409;-78
2022/04/21 03:58:53;;;;;;;;;;;;;;;7.46;100.00;100398.34;5094097;28;19924;-77
2022/04/21 04:01:19;;;;;;;;;;;;;;;7.41;100.00;100404.22;5092880;28;19927;-77
2022/04/21 04:03:45;;;;;;;;;;;;;;;7.33;100.00;100403.91;5073609;28;19932;-78
2022/04/21 04:11:39;;;;;;;;;;;;;;;7.18;100.00;100381.47;5105164;28;19930;-77
2022/04/21 04:14:05;;;;;;;;;;;;;;;7.26;100.00;100386.16;5115560;28;20022;-78
2022/04/21 04:16:33;;;;;;;;;;;;;;;7.21;100.00;100382.44;5097228;28;20428;-78
2022/04/21 04:18:58;;;;;;;;;;;;;;;7.21;100.00;100385.97;5098803;28;19923;-78
2022/04/21 04:21:23;;;;;;;;;;;;;;;7.24;100.00;100382.56;5075592;28;20017;-78
2022/04/21 04:23:49;;;;;;;;;;;;;;;7.26;100.00;100375.69;5091714;28;20363;-78
2022/04/21 04:26:14;;;;;;;;;;;;;;;7.28;100.00;100385.38;5111208;28;19927;-78
2022/04/21 04:28:39;;;;;;;;;;;;;;;7.27;100.00;100382.69;5099228;28;20388;-78
2022/04/21 04:31:04;;;;;;;;;;;;;;;7.21;100.00;100380.72;5100914;27;19928;-77
2022/04/21 04:33:31;;;;;;;;;;;;;;;7.20;100.00;100384.16;5107497;27;19919;-78
2022/04/21 04:35:56;;;;;;;;;;;;;;;7.14;100.00;100378.66;5090326;28;19924;-78
2022/04/21 04:38:21;;;;;;;;;;;;;;;7.10;100.00;100380.28;5097452;28;19980;-77
2022/04/21 04:40:46;;;;;;;;;;;;;;;7.11;100.00;100368.06;5096945;28;19927;-75
2022/04/21 04:43:14;;;;;;;;;;;;;;;7.12;100.00;100368.13;5080622;28;20022;-78
2022/04/21 04:48:23;;;;;;;;;;;;;;;7.17;100.00;100348.25;5102553;28;20011;-74
2022/04/21 04:50:48;;;;;;;;;;;;;;;7.22;100.00;100347.56;5077764;27;20073;-75
2022/04/21 04:53:14;;;;;;;;;;;;;;;7.28;100.00;100346.09;5099097;27;19920;-75
2022/04/21 04:55:39;;;;;;;;;;;;;;;7.40;100.00;100342.19;5091306;28;19924;-78
2022/04/21 04:58:04;;;;;;;;;;;;;;;7.63;100.00;100337.84;5077072;28;19920;-78
2022/04/21 05:00:29;;;;;;;;;;;;;;;8.21;100.00;100326.97;5078409;28;19916;-78
2022/04/21 05:02:56;;;;;;;;;;;;;;;8.70;100.00;100350.63;5080182;28;19978;-78
2022/04/21 05:05:21;;;;;;;;;;;;;;;8.94;100.00;100379.50;5097047;27;20606;-78
2022/04/21 05:07:46;;;;;;;;;;;;;;;9.36;100.00;100404.56;5100574;28;19924;-74
2022/04/21 05:10:12;;;;;;;;;;;;;;;9.46;100.00;100443.44;5097285;28;20388;-77
2022/04/21 05:12:37;;;;;;;;;;;;;;;9.66;100.00;100473.00;5085905;28;19927;-78
2022/04/21 05:15:04;;;;;;;;;;;;;;;10.10;100.00;100502.53;5084706;28;19920;-75
2022/04/21 05:17:30;;;;;;;;;;;;;;;10.14;100.00;100520.19;5095431;28;19956;-73
2022/04/21 05:19:55;;;;;;;;;;;;;;;10.42;100.00;100531.63;5084014;28;19920;-74
2022/04/21 05:22:25;;;;;;;;;;;;;;;10.38;100.00;100556.97;5095707;28;19920;-75
2022/04/21 05:24:52;;;;;;;;;;;;;;;10.44;100.00;100565.91;5085503;28;19931;-75
2022/04/21 05:27:17;;;;;;;;;;;;;;;10.46;100.00;100569.50;5083793;27;19919;-77
2022/04/21 05:32:28;;;;;;;;;;;;;;;10.77;100.00;100588.03;5082453;28;19931;-73
2022/04/21 05:34:54;;;;;;;;;;;;;;;10.92;100.00;100602.50;5119832;27;20383;-74
2022/04/21 05:37:19;;;;;;;;;;;;;;;11.10;100.00;100608.34;5093061;28;19919;-73
2022/04/21 05:39:45;;;;;;;;;;;;;;;11.30;100.00;100613.31;5076854;28;20319;-75
2022/04/21 05:42:15;;;;;;;;;;;;;;;12.33;100.00;100613.47;5083477;28;20430;-74
2022/04/21 05:44:41;;;;;;;;;;;;;;;12.78;100.00;100640.97;5094189;28;19926;-75
2022/04/21 05:47:06;;;;;;;;;;;;;;;12.94;100.00;100655.44;5086444;27;20018;-73
2022/04/21 05:49:32;;;;;;;;;;;;;;;13.11;100.00;100682.25;5103457;28;20268;-76
2022/04/21 05:51:59;;;;;;;;;;;;;;;13.19;100.00;100685.06;5078037;28;19923;-75
2022/04/21 05:54:26;;;;;;;;;;;;;;;12.06;100.00;100707.78;5092994;28;19916;-75
2022/04/21 05:56:51;;;;;;;;;;;;;;;12.27;100.00;100696.91;5095359;28;19919;-74
2022/04/21 05:59:16;;;;;;;;;;;;;;;12.53;100.00;100708.16;5075594;28;19974;-74
2022/04/21 06:01:41;;;;;;;;;;;;;;;12.02;100.00;100693.59;5093105;28;20359;-73
2022/04/21 06:04:07;;;;;;;;;;;;;;;11.79;100.00;100698.22;5083908;28;19919;-74
2022/04/21 06:06:32;;;;;;;;;;;;;;;11.65;100.00;100700.44;5089698;28;20014;-73
2022/04/21 06:08:57;;;;;;;;;;;;;;;11.38;100.00;100701.41;5113068;28;19961;-74
2022/04/21 06:11:24;;;;;;;;;;;;;;;11.44;100.00;100698.97;5112815;28;19926;-72
2022/04/21 06:13:50;;;;;;;;;;;;;;;11.84;100.00;100693.97;5094858;28;19972;-74
2022/04/21 06:16:15;;;;;;;;;;;;;;;12.06;100.00;100724.53;5095062;28;20297;-72
2022/04/21 06:18:40;;;;;;;;;;;;;;;12.28;100.00;100735.69;5112713;28;19916;-73
2022/04/21 06:21:06;;;;;;;;;;;;;;;12.53;100.00;100745.13;5094046;28;20023;-74
2022/04/21 06:23:32;;;;;;;;;;;;;;;12.51;100.00;100746.88;5087807;28;19920;-75
2022/04/21 06:26:00;;;;;;;;;;;;;;;13.07;100.00;100739.44;5073961;28;19965;-75
2022/04/21 06:28:28;;;;;;;;;;;;;;;12.88;100.00;100748.69;5074186;28;19962;-74
2022/04/21 06:30:53;;;;;;;;;;;;;;;13.13;100.00;100744.00;5098062;28;19927;-74
2022/04/21 06:33:18;;;;;;;;;;;;;;;13.54;100.00;100759.06;5094043;28;19916;-76
2022/04/21 06:35:47;;;;;;;;;;;;;;;14.25;100.00;100768.50;5094805;28;19923;-74
2022/04/21 06:38:12;;;;;;;;;;;;;;;14.29;100.00;100794.16;5090758;28;20008;-75
2022/04/21 06:40:38;;;;;;;;;;;;;;;14.10;100.00;100875.00;5103555;28;20454;-76
2022/04/21 06:48:01;;;;;;;;;;;;;;;14.23;100.00;100972.41;5074849;28;19923;-73
2022/04/21 06:48:33;;;;;;;;;;;;;;;15.74;100.00;101096.66;5113660;28;20292;-76
2022/04/21 06:50:58;;;;;;;;;;;;;;;15.01;100.00;101144.69;5095051;28;19920;-78
2022/04/21 06:53:23;;;;;;;;;;;;;;;15.44;100.00;101164.16;5095224;28;20002;-74
2022/04/21 06:55:49;;;;;;;;;;;;;;;16.21;100.00;101202.00;5095217;28;19916;-74
2022/04/21 06:58:14;;;;;;;;;;;;;;;16.20;100.00;101206.41;5112507;28;20399;-74
2022/04/21 07:00:40;;;;;;;;;;;;;;;15.27;100.00;101222.16;5094178;28;19923;-74
2022/04/21 07:03:07;;;;;;;;;;;;;;;15.10;100.00;101215.59;5093651;28;20187;-76
2022/04/21 07:05:33;;;;;;;;;;;;;;;15.21;100.00;101199.06;5095347;28;19912;-77
2022/04/21 07:07:58;;;;;;;;;;;;;;;15.35;100.00;101225.00;5076609;28;19924;-77
2022/04/21 07:10:23;;;;;;;;;;;;;;;15.01;100.00;101229.53;5088266;28;19939;-77
2022/04/21 07:12:50;;;;;;;;;;;;;;;15.34;100.00;101229.41;5095386;28;19919;-79
2022/04/21 07:15:15;;;;;;;;;;;;;;;15.60;100.00;101248.56;5085814;28;20364;-75
2022/04/21 07:17:41;;;;;;;;;;;;;;;15.11;100.00;101255.41;5088761;28;19927;-75
2022/04/21 07:20:08;;;;;;;;;;;;;;;15.20;100.00;101246.78;5093810;28;19924;-74
2022/04/21 07:22:33;;;;;;;;;;;;;;;15.94;100.00;101251.97;5112035;28;19920;-77
2022/04/21 07:25:00;;;;;;;;;;;;;;;15.93;100.00;101263.44;5093147;28;20291;-76
2022/04/21 07:27:25;;;;;;;;;;;;;;;16.40;100.00;101262.59;5094990;28;19923;-75
2022/04/21 07:29:51;;;;;;;;;;;;;;;16.54;100.00;101269.94;5098970;27;19919;-76
2022/04/21 07:32:16;;;;;;;;;;;;;;;17.14;100.00;101287.84;5113921;27;19923;-75
2022/04/21 07:34:43;;;;;;;;;;;;;;;16.47;100.00;101277.78;5078506;28;19927;-75
2022/04/21 07:37:09;;;;;;;;;;;;;;;16.72;100.00;101299.50;5091593;28;20370;-76
2022/04/21 07:39:35;;;;;;;;;;;;;;;17.14;100.00;101290.50;5093181;28;19920;-75
2022/04/21 07:42:00;;;;;;;;;;;;;;;17.33;100.00;101304.97;5093331;28;19916;-75
2022/04/21 07:44:27;;;;;;;;;;;;;;;17.50;100.00;101296.38;5092056;28;19926;-73
2022/04/21 07:46:52;;;;;;;;;;;;;;;16.69;100.00;101297.69;5093453;28;19915;-74
2022/04/21 07:54:45;;;;;;;;;;;;;;;16.29;100.00;101277.44;5126374;28;20365;-73
2022/04/21 07:57:11;;;;;;;;;;;;;;;16.33;100.00;101284.63;5086342;28;19920;-77
2022/04/21 07:59:36;;;;;;;;;;;;;;;16.14;100.00;101301.94;5076160;28;19931;-72
2022/04/21 08:02:03;;;;;;;;;;;;;;;16.15;100.00;101307.28;5093067;28;19961;-74
2022/04/21 08:04:29;;;;;;;;;;;;;;;16.25;100.00;101299.50;5092478;28;20006;-73
2022/04/21 08:06:56;;;;;;;;;;;;;;;16.57;100.00;101308.09;5079918;28;20002;-73
2022/04/21 08:09:21;;;;;;;;;;;;;;;16.20;100.00;101320.66;5092861;28;20029;-76
2022/04/21 08:11:47;;;;;;;;;;;;;;;16.19;100.00;101317.97;5092121;28;19927;-72
2022/04/21 08:14:16;;;;;;;;;;;;;;;16.30;100.00;101316.44;5092339;28;20015;-72
2022/04/21 08:16:44;;;;;;;;;;;;;;;16.48;100.00;101316.81;5111311;28;19922;-73
2022/04/21 08:19:09;;;;;;;;;;;;;;;16.30;100.00;101320.00;5092080;28;19927;-73
2022/04/21 08:21:36;;;;;;;;;;;;;;;15.91;100.00;101322.69;5092434;28;19964;-73
2022/04/21 08:35:04;;;;;;;;;;;;;;;16.35;100.00;101280.22;5110583;28;20337;-72
2022/04/21 08:37:33;;;;;;;;;;;;;;;16.25;100.00;101265.88;5093202;28;19916;-73
2022/04/21 08:39:59;;;;;;;;;;;;;;;15.98;100.00;101263.53;5092268;28;19963;-72
2022/04/21 08:42:26;;;;;;;;;;;;;;;16.42;100.00;101286.53;5109832;28;19955;-74
2022/04/21 08:44:53;;;;;;;;;;;;;;;16.22;100.00;101302.09;5088836;28;20337;-76
2022/04/21 08:47:19;;;;;;;;;;;;;;;16.85;100.00;101319.22;5091505;28;19919;-75
2022/04/21 08:49:48;;;;;;;;;;;;;;;15.68;100.00;101325.72;5092361;28;19969;-74
2022/04/21 08:52:15;;;;;;;;;;;;;;;15.42;100.00;101323.34;5078958;28;19956;-73
2022/04/21 08:54:40;;;;;;;;;;;;;;;15.36;100.00;101314.34;5073374;28;20361;-73
2022/04/21 08:57:06;;;;;;;;;;;;;;;14.88;100.00;101308.78;5076086;28;19935;-75
2022/04/21 08:59:31;;;;;;;;;;;;;;;15.86;100.00;101308.44;5076280;28;19923;-74
2022/04/21 09:01:58;;;;;;;;;;;;;;;15.08;100.00;101322.53;5086406;28;19926;-77
2022/04/21 09:04:24;;;;;;;;;;;;;;;15.05;100.00;101309.19;5096797;28;19915;-74
2022/04/21 09:06:49;;;;;;;;;;;;;;;15.28;100.00;101306.22;5086449;28;19921;-75
2022/04/21 09:09:21;;;;;;;;;;;;;;;15.20;100.00;101287.47;5094869;28;19959;-76
2022/04/21 09:11:50;;;;;;;;;;;;;;;15.46;100.00;101288.91;5076411;28;19920;-73
2022/04/21 09:14:16;;;;;;;;;;;;;;;15.11;100.00;101289.00;5059097;28;20013;-74
2022/04/21 09:16:42;;;;;;;;;;;;;;;15.61;100.00;101294.59;5076354;28;19927;-72
2022/04/21 09:19:07;;;;;;;;;;;;;;;15.76;100.00;101294.91;5076045;28;19923;-74
2022/04/21 09:21:37;;;;;;;;;;;;;;;15.87;100.00;101284.56;5075991;28;20290;-76
2022/04/21 09:24:17;;;;;;;;;;;;;;;15.55;100.00;101291.78;5093976;28;20020;-75
2022/04/21 09:26:45;;;;;;;;;;;;;;;15.53;100.00;101294.41;5094414;28;19920;-74
2022/04/21 09:29:13;;;;;;;;;;;;;;;15.17;100.00;101292.69;5114283;28;20008;-74
2022/04/21 09:31:40;;;;;;;;;;;;;;;14.98;100.00;101299.31;5113922;27;19976;-77
2022/04/21 09:34:08;;;;;;;;;;;;;;;15.03;100.00;101271.13;5095104;28;19912;-74
2022/04/21 09:36:33;;;;;;;;;;;;;;;15.05;100.00;101279.13;5095167;28;20259;-74
2022/04/21 09:39:01;;;;;;;;;;;;;;;15.19;100.00;101267.09;5112374;28;20007;-75
2022/04/21 09:41:30;;;;;;;;;;;;;;;14.99;100.00;101278.97;5105507;28;19973;-76
2022/04/21 09:46:56;;;;;;;;;;;;;;;15.26;100.00;101265.50;5093953;28;19923;-75
2022/04/21 09:49:43;;;;;;;;;;;;;;;14.85;100.00;101278.63;5101790;28;19919;-74
2022/04/21 09:52:09;;;;;;;;;;;;;;;15.20;100.00;101257.41;5095155;28;19919;-73
2022/04/21 09:54:34;;;;;;;;;;;;;;;15.38;100.00;101268.44;5095756;28;19943;-75
2022/04/21 09:57:00;;;;;;;;;;;;;;;15.28;100.00;101260.22;5095451;28;19916;-74
2022/04/21 09:59:25;;;;;;;;;;;;;;;15.37;100.00;101271.94;5096231;28;19955;-74
2022/04/21 10:01:51;;;;;;;;;;;;;;;15.28;100.00;101278.78;5088841;28;20371;-74
2022/04/21 10:04:19;;;;;;;;;;;;;;;15.39;100.00;101272.84;5094134;28;20290;-74
2022/04/21 10:06:45;;;;;;;;;;;;;;;15.39;100.00;101269.31;5094752;28;19949;-74
2022/04/21 10:09:11;;;;;;;;;;;;;;;15.47;100.00;101266.84;5078174;28;19920;-74
2022/04/21 10:11:42;;;;;;;;;;;;;;;15.35;100.00;101268.38;5094646;28;19939;-74
2022/04/21 10:14:07;;;;;;;;;;;;;;;15.60;100.00;101274.22;5094829;28;19924;-72
2022/04/21 10:16:33;;;;;;;;;;;;;;;15.91;100.00;101259.88;5112580;28;20360;-74
2022/04/21 10:18:59;;;;;;;;;;;;;;;15.84;100.00;101265.03;5091122;28;19920;-73
2022/04/21 10:21:29;;;;;;;;;;;;;;;15.63;100.00;101263.69;5091386;28;20264;-73
2022/04/21 10:23:57;;;;;;;;;;;;;;;15.92;100.00;101269.63;5070249;28;19999;-74
2022/04/21 10:26:36;;;;;;;;;;;;;;;15.81;100.00;101263.19;5082342;28;19938;-75
2022/04/21 10:29:10;;;;;;;;;;;;;;;16.01;100.00;101276.88;5092084;28;19924;-75
2022/04/21 10:31:43;;;;;;;;;;;;;;;15.90;100.00;101276.66;5074648;28;20268;-73
2022/04/21 10:34:09;;;;;;;;;;;;;;;15.79;100.00;101279.09;5093998;28;19927;-74
2022/04/21 10:36:35;;;;;;;;;;;;;;;15.73;100.00;101281.56;5099945;28;20011;-75
2022/04/21 10:39:19;;;;;;;;;;;;;;;15.85;100.00;101282.72;5076958;28;19988;-73
2022/04/21 10:41:45;;;;;;;;;;;;;;;15.72;100.00;101279.81;5093160;28;20292;-74
2022/04/21 10:44:14;;;;;;;;;;;;;;;15.66;100.00;101271.72;5091063;28;19995;-73
2022/04/21 10:46:39;;;;;;;;;;;;;;;15.91;100.00;101286.44;5073355;28;20376;-74
2022/04/21 10:49:04;;;;;;;;;;;;;;;15.83;100.00;101279.16;5073192;28;19923;-74
2022/04/21 10:51:42;;;;;;;;;;;;;;;15.69;100.00;101286.78;5074600;28;20007;-74
2022/04/21 10:57:15;;;;;;;;;;;;;;;15.78;100.00;101284.38;5092643;28;20446;-75
2022/04/21 10:59:56;;;;;;;;;;;;;;;15.83;100.00;101277.38;5073342;28;19957;-77
2022/04/21 11:02:36;;;;;;;;;;;;;;;15.96;100.00;101278.56;5093563;28;19916;-77
2022/04/21 11:05:22;;;;;;;;;;;;;;;16.15;100.00;101283.38;5096231;28;20319;-75
2022/04/21 11:07:51;;;;;;;;;;;;;;;15.92;100.00;101280.25;5092868;28;19972;-75
2022/04/21 11:10:27;;;;;;;;;;;;;;;15.90;100.00;101278.44;5092976;28;19915;-76
2022/04/21 11:12:53;;;;;;;;;;;;;;;16.17;100.00;101285.16;5093861;28;19919;-76
2022/04/21 11:15:37;;;;;;;;;;;;;;;15.76;100.00;101281.66;5093216;28;19947;-76
2022/04/21 11:18:12;;;;;;;;;;;;;;;16.05;100.00;101277.84;5083660;28;19920;-76
2022/04/21 11:20:38;;;;;;;;;;;;;;;16.06;100.00;101280.53;5072737;28;20375;-76
2022/04/21 11:23:03;;;;;;;;;;;;;;;16.21;100.00;101284.38;5087872;28;19920;-74
2022/04/21 11:25:35;;;;;;;;;;;;;;;16.34;100.00;101273.09;5093922;28;19930;-74
2022/04/21 11:28:01;;;;;;;;;;;;;;;16.25;100.00;101280.88;5093906;28;19912;-75
2022/04/21 11:30:27;;;;;;;;;;;;;;;16.30;100.00;101277.47;5094326;28;19915;-76
2022/04/21 11:32:53;;;;;;;;;;;;;;;16.23;100.00;101272.88;5093948;28;19961;-75
2022/04/21 11:35:21;;;;;;;;;;;;;;;16.31;100.00;101270.38;5093379;28;19915;-75
2022/04/21 11:37:47;;;;;;;;;;;;;;;16.51;100.00;101274.34;5094101;28;19927;-75
2022/04/21 11:40:26;;;;;;;;;;;;;;;16.83;100.00;101267.78;5093660;28;19915;-76
2022/04/21 11:42:54;;;;;;;;;;;;;;;16.58;100.00;101282.38;5102932;28;19920;-74
2022/04/21 11:45:29;;;;;;;;;;;;;;;16.42;100.00;101270.59;5092127;28;20379;-75
2022/04/21 11:47:55;;;;;;;;;;;;;;;16.63;100.00;101272.75;5072866;28;19916;-75
2022/04/21 11:50:21;;;;;;;;;;;;;;;16.50;100.00;101272.53;5073824;28;19922;-77
2022/04/21 11:52:52;;;;;;;;;;;;;;;16.76;100.00;101263.22;5073544;28;19916;-75
2022/04/21 11:55:18;;;;;;;;;;;;;;;16.77;100.00;101265.03;5088669;28;19930;-75
2022/04/21 11:57:44;;;;;;;;;;;;;;;16.90;100.00;101253.72;5094006;28;20006;-75
2022/04/21 12:00:10;;;;;;;;;;;;;;;16.94;100.00;101246.72;5073591;28;20390;-76
2022/04/21 12:08:06;;;;;;;;;;;;;;;16.90;100.00;101256.41;5112186;28;20003;-77
2022/04/21 12:10:31;;;;;;;;;;;;;;;16.93;100.00;101266.19;5091539;28;19916;-78
2022/04/21 12:12:57;;;;;;;;;;;;;;;16.43;98.95;101259.09;5077782;28;20398;-76
2022/04/21 12:15:30;;;;;;;;;;;;;;;16.52;100.00;101265.47;5081527;28;19920;-76
2022/04/21 12:18:02;;;;;;;;;;;;;;;16.86;100.00;101243.94;5110957;28;19916;-74
2022/04/21 12:20:27;;;;;;;;;;;;;;;17.18;100.00;101248.84;5087235;28;20439;-73
2022/04/21 12:22:53;;;;;;;;;;;;;;;17.00;100.00;101244.16;5092652;28;20107;-73
2022/04/21 12:25:18;;;;;;;;;;;;;;;17.05;100.00;101247.78;5092356;28;19951;-75
2022/04/21 12:27:44;;;;;;;;;;;;;;;16.87;98.69;101240.38;5092900;28;20272;-74
2022/04/21 12:30:13;;;;;;;;;;;;;;;16.70;100.00;101250.69;5093442;28;19923;-73
2022/04/21 12:32:40;;;;;;;;;;;;;;;17.04;100.00;101230.94;5097119;28;19920;-75
2022/04/21 12:35:06;;;;;;;;;;;;;;;16.81;99.61;101246.47;5096159;28;19959;-73
2022/04/21 12:38:50;;;;;;;;;;;;;;;16.81;96.72;101230.53;5096277;28;19922;-73
2022/04/21 12:40:36;;;;;;;;;;;;;;;17.07;100.00;101208.78;5115027;28;19916;-74
2022/04/21 12:43:01;;;;;;;;;;;;;;;17.09;100.00;101219.44;5096536;28;19923;-76
2022/04/21 12:45:26;;;;;;;;;;;;;;;17.08;100.00;101218.56;5114882;28;20424;-74
2022/04/21 12:47:52;;;;;;;;;;;;;;;17.21;100.00;101203.66;5096436;28;19916;-73
2022/04/21 12:50:21;;;;;;;;;;;;;;;17.20;100.00;101213.41;5094877;28;19954;-74
2022/04/21 12:52:48;;;;;;;;;;;;;;;16.86;93.99;101217.34;5093980;28;19919;-75
2022/04/21 12:55:19;;;;;;;;;;;;;;;16.83;96.69;101203.97;5097043;28;19972;-73
2022/04/21 12:58:17;;;;;;;;;;;;;;;16.65;96.24;101207.19;5106855;28;19920;-74
2022/04/21 13:00:45;;;;;;;;;;;;;;;16.97;98.51;101212.19;5060457;28;19916;-73
2022/04/21 13:03:13;;;;;;;;;;;;;;;17.38;100.00;101195.91;5077207;28;19980;-75
2022/04/21 13:05:49;;;;;;;;;;;;;;;17.10;99.11;101189.31;5091048;28;19916;-76
2022/04/21 13:08:14;;;;;;;;;;;;;;;17.33;100.00;101189.66;5068218;28;19920;-75
2022/04/21 13:10:40;;;;;;;;;;;;;;;17.17;100.00;101183.22;5108353;28;20363;-74
2022/04/21 13:13:05;;;;;;;;;;;;;;;17.19;100.00;101179.69;5113821;28;20477;-75
2022/04/21 13:15:30;;;;;;;;;;;;;;;17.01;100.00;101184.75;5115003;28;20613;-74
2022/04/21 13:17:56;;;;;;;;;;;;;;;17.17;97.86;101178.78;5096108;28;19923;-74
2022/04/21 13:23:05;;;;;;;;;;;;;;;17.21;99.25;101171.72;5111264;28;20476;-74
2022/04/21 13:25:31;;;;;;;;;;;;;;;17.34;100.00;101162.13;5091383;28;20010;-76